Time;durP1;ratioP1;P1;durP2;ratioP2;P2;SDS_P1;SDS_P2;PMS_P1;PMS_P2;Temp;Humidity;BMP_temperature;BMP_pressure;BME280_temperature;BME280_humidity;BME280_pressure;Samples;Min_cycle;Max_cycle;Signal;HPM_P1;HPM_P2
2023/06/13 00:00:32;;;;;;;8.95;3.92;;;;;;;;;;4911639;29;20105;-85
2023/06/13 00:02:58;;;;;;;6.18;3.28;;;;;;;;;;4912429;29;20039;-86
2023/06/13 00:05:24;;;;;;;6.65;3.50;;;;;;;;;;4915580;29;20274;-86
2023/06/13 00:07:49;;;;;;;6.78;3.67;;;;;;;;;;4926829;29;20023;-85
2023/06/13 00:10:15;;;;;;;5.57;3.38;;;;;;;;;;4887596;29;20035;-84
2023/06/13 00:12:44;;;;;;;7.38;3.53;;;;;;;;;;4917767;29;20034;-86
2023/06/13 00:15:11;;;;;;;5.28;3.25;;;;;;;;;;4924290;29;20028;-87
2023/06/13 00:17:38;;;;;;;6.75;3.50;;;;;;;;;;4925082;29;20088;-85
2023/06/13 00:20:06;;;;;;;7.80;3.85;;;;;;;;;;4887015;29;20127;-84
2023/06/13 00:22:32;;;;;;;7.30;3.60;;;;;;;;;;4910586;29;20512;-86
2023/06/13 00:24:57;;;;;;;5.85;3.35;;;;;;;;;;4925411;29;20040;-87
2023/06/13 00:27:23;;;;;;;5.82;3.25;;;;;;;;;;4932833;29;20036;-87
2023/06/13 00:29:48;;;;;;;8.63;3.60;;;;;;;;;;4893624;29;20032;-85
2023/06/13 00:32:15;;;;;;;6.00;3.47;;;;;;;;;;4925585;29;20035;-85
2023/06/13 00:34:43;;;;;;;7.28;3.60;;;;;;;;;;4931793;29;20044;-86
2023/06/13 00:37:12;;;;;;;7.75;3.85;;;;;;;;;;4935612;23;20505;-78
2023/06/13 00:39:38;;;;;;;6.20;3.70;;;;;;;;;;4911386;29;20122;-78
2023/06/13 00:42:06;;;;;;;10.45;3.25;;;;;;;;;;4925628;29;20024;-78
2023/06/13 00:44:32;;;;;;;13.20;3.58;;;;;;;;;;4929841;29;20461;-77
2023/06/13 00:46:59;;;;;;;6.28;3.60;;;;;;;;;;4917917;29;20063;-78
2023/06/13 00:49:25;;;;;;;7.03;3.72;;;;;;;;;;4915900;29;20397;-79
2023/06/13 00:51:51;;;;;;;6.53;3.42;;;;;;;;;;4924291;29;20032;-76
2023/06/13 00:54:18;;;;;;;7.00;3.72;;;;;;;;;;4917303;29;20537;-79
2023/06/13 00:56:44;;;;;;;8.27;3.63;;;;;;;;;;4929798;29;20028;-79
2023/06/13 00:59:11;;;;;;;9.35;3.80;;;;;;;;;;4903427;29;20149;-78
2023/06/13 01:01:40;;;;;;;5.40;3.35;;;;;;;;;;4928150;29;20110;-79
2023/06/13 01:04:07;;;;;;;6.20;3.40;;;;;;;;;;4926037;29;20043;-78
2023/06/13 01:06:37;;;;;;;11.15;3.58;;;;;;;;;;4920407;29;20048;-78
2023/06/13 01:09:03;;;;;;;6.15;3.17;;;;;;;;;;4916842;29;20071;-76
2023/06/13 01:11:36;;;;;;;7.25;3.55;;;;;;;;;;4929308;29;20032;-79
2023/06/13 01:14:15;;;;;;;5.68;3.40;;;;;;;;;;4925365;29;20067;-78
2023/06/13 01:16:48;;;;;;;8.00;3.78;;;;;;;;;;4919439;29;20036;-77
2023/06/13 01:19:23;;;;;;;8.63;3.63;;;;;;;;;;4925547;29;20046;-79
2023/06/13 01:21:49;;;;;;;9.32;4.10;;;;;;;;;;4923600;29;20119;-79
2023/06/13 01:24:23;;;;;;;6.53;3.10;;;;;;;;;;4919421;29;20028;-77
2023/06/13 01:26:54;;;;;;;8.40;3.47;;;;;;;;;;4931010;29;20110;-77
2023/06/13 01:29:20;;;;;;;8.60;3.83;;;;;;;;;;4919299;29;20024;-77
2023/06/13 01:31:50;;;;;;;7.70;3.72;;;;;;;;;;4926311;29;20028;-77
2023/06/13 01:34:16;;;;;;;7.88;3.65;;;;;;;;;;4926600;29;20501;-79
2023/06/13 01:36:42;;;;;;;7.07;3.55;;;;;;;;;;4919105;29;20035;-77
2023/06/13 01:39:07;;;;;;;5.97;3.40;;;;;;;;;;4909370;29;20110;-79
2023/06/13 01:41:33;;;;;;;5.32;3.55;;;;;;;;;;4929463;29;20028;-80
2023/06/13 01:43:59;;;;;;;7.63;3.38;;;;;;;;;;4911248;29;20040;-79
2023/06/13 01:46:27;;;;;;;6.65;3.78;;;;;;;;;;4919676;29;20565;-77
2023/06/13 01:49:02;;;;;;;7.47;3.63;;;;;;;;;;4916731;29;20029;-78
2023/06/13 01:51:36;;;;;;;5.43;3.53;;;;;;;;;;4929022;29;20028;-80
2023/06/13 01:54:04;;;;;;;5.95;3.67;;;;;;;;;;4926040;29;20094;-79
2023/06/13 01:56:31;;;;;;;6.10;3.58;;;;;;;;;;4922284;29;20123;-77
2023/06/13 01:59:03;;;;;;;6.70;3.65;;;;;;;;;;4915469;29;20036;-79
2023/06/13 02:01:30;;;;;;;6.80;3.47;;;;;;;;;;4922282;29;20023;-76
2023/06/13 02:03:56;;;;;;;7.23;3.80;;;;;;;;;;4926623;29;20123;-78
2023/06/13 02:06:22;;;;;;;7.72;3.60;;;;;;;;;;4928978;29;20349;-76
2023/06/13 02:08:50;;;;;;;6.25;3.40;;;;;;;;;;4920087;29;20035;-77
2023/06/13 02:11:15;;;;;;;7.97;4.20;;;;;;;;;;4936694;29;20039;-78
2023/06/13 02:13:41;;;;;;;9.10;3.80;;;;;;;;;;4937530;29;20532;-79
2023/06/13 02:16:07;;;;;;;6.80;3.17;;;;;;;;;;4926307;29;20120;-78
2023/06/13 02:18:33;;;;;;;8.73;3.95;;;;;;;;;;4917812;29;20032;-79
2023/06/13 02:20:59;;;;;;;7.72;3.72;;;;;;;;;;4917172;29;20126;-79
2023/06/13 02:23:26;;;;;;;7.65;3.72;;;;;;;;;;4911442;29;20032;-78
2023/06/13 02:25:52;;;;;;;6.50;3.65;;;;;;;;;;4924460;29;20049;-77
2023/06/13 02:28:18;;;;;;;5.68;3.75;;;;;;;;;;4933604;29;20106;-77
2023/06/13 02:30:46;;;;;;;6.07;3.70;;;;;;;;;;4917779;29;20087;-78
2023/06/13 02:33:15;;;;;;;7.35;3.92;;;;;;;;;;4901984;29;20485;-78
2023/06/13 02:35:44;;;;;;;8.25;4.90;;;;;;;;;;4929442;29;20070;-78
2023/06/13 02:38:09;;;;;;;9.02;3.85;;;;;;;;;;4922531;29;20067;-78
2023/06/13 02:40:38;;;;;;;6.70;4.13;;;;;;;;;;4898376;29;20032;-78
2023/06/13 02:43:04;;;;;;;7.63;3.67;;;;;;;;;;4948956;29;20063;-76
2023/06/13 02:45:29;;;;;;;11.68;5.03;;;;;;;;;;4922646;28;20027;-78
2023/06/13 02:47:56;;;;;;;10.80;3.97;;;;;;;;;;4924778;29;20556;-76
2023/06/13 02:50:22;;;;;;;7.93;3.78;;;;;;;;;;4934462;29;20032;-76
2023/06/13 02:52:48;;;;;;;9.00;3.50;;;;;;;;;;4915282;29;20121;-77
2023/06/13 02:55:13;;;;;;;7.97;3.80;;;;;;;;;;4922284;29;20031;-77
2023/06/13 02:57:39;;;;;;;14.23;8.00;;;;;;;;;;4929814;29;20505;-78
2023/06/13 03:00:07;;;;;;;29.25;17.17;;;;;;;;;;4927668;29;20122;-78
2023/06/13 03:02:36;;;;;;;8.18;4.13;;;;;;;;;;4907070;29;20087;-78
2023/06/13 03:05:05;;;;;;;8.55;3.75;;;;;;;;;;4932773;29;20039;-79
2023/06/13 03:07:31;;;;;;;8.05;4.15;;;;;;;;;;4907589;29;20027;-78
2023/06/13 03:10:01;;;;;;;7.50;3.90;;;;;;;;;;4950529;29;20028;-79
2023/06/13 03:12:27;;;;;;;12.02;5.28;;;;;;;;;;4924490;29;20051;-77
2023/06/13 03:14:53;;;;;;;11.68;4.70;;;;;;;;;;4933913;29;20039;-78
2023/06/13 03:17:18;;;;;;;8.45;4.10;;;;;;;;;;4906516;29;20031;-78
2023/06/13 03:19:44;;;;;;;7.13;4.63;;;;;;;;;;4929615;29;20115;-75
2023/06/13 03:22:14;;;;;;;9.05;4.90;;;;;;;;;;4931554;29;20117;-76
2023/06/13 03:24:41;;;;;;;9.10;4.68;;;;;;;;;;4941956;29;20038;-78
2023/06/13 03:27:07;;;;;;;12.80;5.07;;;;;;;;;;4936376;29;20031;-78
2023/06/13 03:29:33;;;;;;;9.55;4.50;;;;;;;;;;4926611;29;20477;-78
2023/06/13 03:31:58;;;;;;;7.20;4.65;;;;;;;;;;4947292;29;20083;-76
2023/06/13 03:34:26;;;;;;;10.15;4.28;;;;;;;;;;4931667;29;20098;-78
2023/06/13 03:36:51;;;;;;;10.27;4.55;;;;;;;;;;4920242;29;20046;-78
2023/06/13 03:39:18;;;;;;;8.20;4.80;;;;;;;;;;4916409;29;20213;-78
2023/06/13 03:41:43;;;;;;;16.38;5.40;;;;;;;;;;4931907;29;20584;-79
2023/06/13 03:44:09;;;;;;;7.40;4.30;;;;;;;;;;4920761;29;20114;-77
2023/06/13 03:46:34;;;;;;;6.70;4.50;;;;;;;;;;4938810;29;20028;-77
2023/06/13 03:49:00;;;;;;;13.73;5.03;;;;;;;;;;4939348;29;20070;-78
2023/06/13 03:51:25;;;;;;;9.57;4.40;;;;;;;;;;4925696;29;20034;-78
2023/06/13 03:53:51;;;;;;;8.80;5.10;;;;;;;;;;4927367;29;20034;-78
2023/06/13 03:56:16;;;;;;;8.27;5.22;;;;;;;;;;4920340;29;20032;-79
2023/06/13 03:58:42;;;;;;;7.15;4.57;;;;;;;;;;4935149;29;20526;-77
2023/06/13 04:01:08;;;;;;;9.95;4.97;;;;;;;;;;4940058;29;20035;-76
2023/06/13 04:03:35;;;;;;;10.88;5.05;;;;;;;;;;4925308;29;20038;-78
2023/06/13 04:06:01;;;;;;;10.13;5.07;;;;;;;;;;4946285;28;20035;-77
2023/06/13 04:08:26;;;;;;;9.45;4.57;;;;;;;;;;4942940;29;20016;-76
2023/06/13 04:10:52;;;;;;;5.85;4.15;;;;;;;;;;4952285;29;20039;-78
2023/06/13 04:13:17;;;;;;;8.60;5.40;;;;;;;;;;4923443;29;20031;-78
2023/06/13 04:15:42;;;;;;;14.88;5.22;;;;;;;;;;4931610;29;20105;-79
2023/06/13 04:18:09;;;;;;;14.82;4.90;;;;;;;;;;4930199;29;20035;-78
2023/06/13 04:20:34;;;;;;;8.57;4.80;;;;;;;;;;4908692;29;20043;-77
2023/06/13 04:23:01;;;;;;;7.90;4.68;;;;;;;;;;4952451;29;20102;-78
2023/06/13 04:25:27;;;;;;;7.30;4.07;;;;;;;;;;4924540;28;20047;-78
2023/06/13 04:27:53;;;;;;;12.07;6.63;;;;;;;;;;4929831;29;20408;-78
2023/06/13 04:30:18;;;;;;;12.70;6.82;;;;;;;;;;4915534;28;20035;-79
2023/06/13 04:32:45;;;;;;;8.38;4.70;;;;;;;;;;4923133;29;20102;-79
2023/06/13 04:35:16;;;;;;;10.88;4.90;;;;;;;;;;4935040;29;20040;-79
2023/06/13 04:37:43;;;;;;;10.27;4.35;;;;;;;;;;4937034;29;20046;-77
2023/06/13 04:40:09;;;;;;;12.30;4.75;;;;;;;;;;4930944;29;20031;-79
2023/06/13 04:42:35;;;;;;;11.43;5.80;;;;;;;;;;4941378;29;20039;-78
2023/06/13 04:45:01;;;;;;;13.68;6.03;;;;;;;;;;4952166;29;20035;-78
2023/06/13 04:47:27;;;;;;;11.65;5.07;;;;;;;;;;4941784;29;20023;-79
2023/06/13 04:50:02;;;;;;;13.57;5.00;;;;;;;;;;4931221;29;20043;-78
2023/06/13 04:52:32;;;;;;;9.40;4.75;;;;;;;;;;4952602;29;20159;-78
2023/06/13 04:55:01;;;;;;;11.18;5.25;;;;;;;;;;4942243;29;20035;-78
2023/06/13 04:57:27;;;;;;;10.02;5.05;;;;;;;;;;4922481;29;20028;-79
2023/06/13 04:59:53;;;;;;;9.00;4.50;;;;;;;;;;4932707;29;20388;-78
2023/06/13 05:02:18;;;;;;;11.10;5.22;;;;;;;;;;4929332;29;20493;-78
2023/06/13 05:04:44;;;;;;;11.90;4.93;;;;;;;;;;4930346;29;20035;-77
2023/06/13 05:07:15;;;;;;;9.25;4.68;;;;;;;;;;4890577;29;20031;-79
2023/06/13 05:09:43;;;;;;;14.00;5.15;;;;;;;;;;4941136;29;20141;-79
2023/06/13 05:12:10;;;;;;;9.02;5.20;;;;;;;;;;4944181;29;20031;-77
2023/06/13 05:14:36;;;;;;;12.60;5.32;;;;;;;;;;4932530;29;20393;-78
2023/06/13 05:17:05;;;;;;;15.32;6.07;;;;;;;;;;4938814;29;20456;-79
2023/06/13 05:19:31;;;;;;;18.80;9.25;;;;;;;;;;4949803;29;20107;-79
2023/06/13 05:21:58;;;;;;;9.40;5.97;;;;;;;;;;4928131;29;20542;-77
2023/06/13 05:24:24;;;;;;;11.60;4.88;;;;;;;;;;4925706;29;20039;-78
2023/06/13 05:26:49;;;;;;;10.13;5.30;;;;;;;;;;4934731;29;20374;-78
2023/06/13 05:29:15;;;;;;;11.52;4.55;;;;;;;;;;4922640;29;20129;-77
2023/06/13 05:31:40;;;;;;;7.32;4.30;;;;;;;;;;4947480;29;20031;-80
2023/06/13 05:34:06;;;;;;;9.52;4.82;;;;;;;;;;4917879;29;20055;-79
2023/06/13 05:36:32;;;;;;;8.75;3.80;;;;;;;;;;4935169;29;20063;-78
2023/06/13 05:38:57;;;;;;;7.32;4.03;;;;;;;;;;4948313;29;20533;-79
2023/06/13 05:41:23;;;;;;;9.50;4.55;;;;;;;;;;4932229;29;20111;-78
2023/06/13 05:43:50;;;;;;;8.65;4.32;;;;;;;;;;4942143;29;20435;-78
2023/06/13 05:46:15;;;;;;;9.35;3.83;;;;;;;;;;4925123;29;20086;-76
2023/06/13 05:48:41;;;;;;;9.57;3.83;;;;;;;;;;4932351;29;20460;-78
2023/06/13 05:51:06;;;;;;;11.57;4.15;;;;;;;;;;4937287;29;20099;-79
2023/06/13 05:53:32;;;;;;;9.32;4.15;;;;;;;;;;4947765;29;20503;-78
2023/06/13 05:55:57;;;;;;;10.63;4.00;;;;;;;;;;4943509;28;20146;-79
2023/06/13 05:58:23;;;;;;;9.43;4.00;;;;;;;;;;4940934;29;20032;-79
2023/06/13 06:00:50;;;;;;;10.45;4.10;;;;;;;;;;4917337;29;20050;-78
2023/06/13 06:03:16;;;;;;;9.60;3.75;;;;;;;;;;4917441;29;20500;-78
2023/06/13 06:05:41;;;;;;;9.55;3.63;;;;;;;;;;4918132;29;20090;-78
2023/06/13 06:08:07;;;;;;;5.43;3.10;;;;;;;;;;4926766;29;20035;-78
2023/06/13 06:10:32;;;;;;;7.25;3.17;;;;;;;;;;4936415;29;20058;-79
2023/06/13 06:12:58;;;;;;;5.68;3.20;;;;;;;;;;4920653;29;20031;-77
2023/06/13 06:15:24;;;;;;;7.95;3.60;;;;;;;;;;4948760;29;20071;-78
2023/06/13 06:17:52;;;;;;;9.93;3.42;;;;;;;;;;4942665;29;20031;-76
2023/06/13 06:20:17;;;;;;;6.97;3.97;;;;;;;;;;4941557;29;20039;-77
2023/06/13 06:22:43;;;;;;;7.93;4.00;;;;;;;;;;4934269;29;20046;-79
2023/06/13 06:25:12;;;;;;;5.78;3.60;;;;;;;;;;4950174;29;20144;-76
2023/06/13 06:27:38;;;;;;;8.27;3.55;;;;;;;;;;4923829;29;20396;-79
2023/06/13 06:30:04;;;;;;;7.10;3.17;;;;;;;;;;4943744;29;20024;-78
2023/06/13 06:32:30;;;;;;;7.72;3.85;;;;;;;;;;4914703;29;20027;-76
2023/06/13 06:34:56;;;;;;;6.95;3.42;;;;;;;;;;4920654;29;20543;-78
2023/06/13 06:37:22;;;;;;;10.00;3.90;;;;;;;;;;4948856;28;20028;-78
2023/06/13 06:39:47;;;;;;;9.15;3.45;;;;;;;;;;4920579;29;20042;-79
2023/06/13 06:42:13;;;;;;;8.35;3.20;;;;;;;;;;4924635;29;20032;-78
2023/06/13 06:44:48;;;;;;;8.13;3.30;;;;;;;;;;4925660;29;20114;-77
2023/06/13 06:47:14;;;;;;;10.88;3.45;;;;;;;;;;4929060;29;20459;-76
2023/06/13 06:49:40;;;;;;;5.30;3.08;;;;;;;;;;4932546;29;20050;-77
2023/06/13 06:52:06;;;;;;;6.95;3.25;;;;;;;;;;4943978;29;20050;-77
2023/06/13 06:54:31;;;;;;;6.57;3.42;;;;;;;;;;4924176;29;20074;-79
2023/06/13 06:56:57;;;;;;;7.00;3.25;;;;;;;;;;4904447;29;20106;-76
2023/06/13 06:59:22;;;;;;;8.80;3.25;;;;;;;;;;4925258;29;20126;-78
2023/06/13 07:01:48;;;;;;;5.75;2.95;;;;;;;;;;4948649;29;20034;-78
2023/06/13 07:04:14;;;;;;;6.28;3.63;;;;;;;;;;4890071;29;20122;-77
2023/06/13 07:06:39;;;;;;;5.63;2.80;;;;;;;;;;4921472;29;20032;-78
2023/06/13 07:09:05;;;;;;;10.50;3.00;;;;;;;;;;4944491;29;20027;-77
2023/06/13 07:11:30;;;;;;;6.53;2.63;;;;;;;;;;4943956;29;20023;-78
2023/06/13 07:13:56;;;;;;;8.48;3.92;;;;;;;;;;4947916;29;20039;-78
2023/06/13 07:16:21;;;;;;;7.72;3.30;;;;;;;;;;4950025;28;20038;-78
2023/06/13 07:18:47;;;;;;;5.70;2.95;;;;;;;;;;4941403;29;20090;-78
2023/06/13 07:21:12;;;;;;;7.32;3.53;;;;;;;;;;4928178;29;20020;-76
2023/06/13 07:23:38;;;;;;;6.78;3.50;;;;;;;;;;4927522;29;20035;-76
2023/06/13 07:26:04;;;;;;;6.68;3.33;;;;;;;;;;4947103;29;20044;-78
2023/06/13 07:28:29;;;;;;;9.27;3.33;;;;;;;;;;4952126;29;20473;-77
2023/06/13 07:30:57;;;;;;;6.47;3.33;;;;;;;;;;4925060;29;20032;-78
2023/06/13 07:33:23;;;;;;;8.15;3.08;;;;;;;;;;4935408;29;20059;-78
2023/06/13 07:35:48;;;;;;;6.68;3.95;;;;;;;;;;4905952;29;20106;-78
2023/06/13 07:38:14;;;;;;;7.30;3.50;;;;;;;;;;4950465;29;20110;-76
2023/06/13 07:40:40;;;;;;;8.05;3.33;;;;;;;;;;4952706;29;20027;-78
2023/06/13 07:43:05;;;;;;;6.35;3.28;;;;;;;;;;4940935;29;20114;-78
2023/06/13 07:45:31;;;;;;;7.18;3.38;;;;;;;;;;4950698;29;20020;-79
2023/06/13 07:47:57;;;;;;;12.38;3.40;;;;;;;;;;4946181;29;20560;-78
2023/06/13 07:50:23;;;;;;;6.03;3.10;;;;;;;;;;4943193;29;20032;-76
2023/06/13 07:52:48;;;;;;;6.00;3.13;;;;;;;;;;4935651;29;20082;-78
2023/06/13 07:55:14;;;;;;;9.05;2.95;;;;;;;;;;4940469;29;20221;-77
2023/06/13 07:57:40;;;;;;;9.15;3.38;;;;;;;;;;4949778;28;20027;-78
2023/06/13 08:00:24;;;;;;;6.50;2.92;;;;;;;;;;4939242;29;20126;-78
2023/06/13 08:02:50;;;;;;;9.18;3.13;;;;;;;;;;4933869;29;20043;-78
2023/06/13 08:05:16;;;;;;;9.02;3.05;;;;;;;;;;4919452;29;20047;-78
2023/06/13 08:07:42;;;;;;;5.20;3.10;;;;;;;;;;4944517;29;20039;-77
2023/06/13 08:10:08;;;;;;;7.65;3.58;;;;;;;;;;4945703;29;20059;-78
2023/06/13 08:12:33;;;;;;;5.57;2.92;;;;;;;;;;4949198;29;20451;-78
2023/06/13 08:14:59;;;;;;;7.20;2.90;;;;;;;;;;4922084;29;20039;-76
2023/06/13 08:17:25;;;;;;;5.75;2.75;;;;;;;;;;4933414;29;20031;-77
2023/06/13 08:19:51;;;;;;;6.53;2.78;;;;;;;;;;4927559;29;20477;-78
2023/06/13 08:22:17;;;;;;;7.18;2.95;;;;;;;;;;4926920;29;20043;-77
2023/06/13 08:24:43;;;;;;;6.03;2.72;;;;;;;;;;4935369;29;20364;-77
2023/06/13 08:27:10;;;;;;;6.68;2.80;;;;;;;;;;4922474;29;20531;-77
2023/06/13 08:29:35;;;;;;;5.65;3.13;;;;;;;;;;4949057;29;20092;-78
2023/06/13 08:32:01;;;;;;;7.38;2.80;;;;;;;;;;4897334;29;20143;-77
2023/06/13 08:34:28;;;;;;;6.03;2.78;;;;;;;;;;4924679;29;20032;-77
2023/06/13 08:36:53;;;;;;;8.65;3.05;;;;;;;;;;4935877;29;20044;-78
2023/06/13 08:39:20;;;;;;;10.00;2.88;;;;;;;;;;4919754;29;20034;-78
2023/06/13 08:41:46;;;;;;;4.65;2.92;;;;;;;;;;4919003;29;20042;-78
2023/06/13 08:44:12;;;;;;;10.30;2.72;;;;;;;;;;4929578;29;20083;-78
2023/06/13 08:46:37;;;;;;;9.40;2.83;;;;;;;;;;4952538;28;20031;-78
2023/06/13 08:49:03;;;;;;;5.53;2.65;;;;;;;;;;4939261;29;20064;-79
2023/06/13 08:51:29;;;;;;;6.22;2.92;;;;;;;;;;4934924;29;20030;-78
2023/06/13 08:53:59;;;;;;;4.55;2.63;;;;;;;;;;4903973;29;20035;-77
2023/06/13 08:56:29;;;;;;;6.80;3.88;;;;;;;;;;4932192;29;20083;-79
2023/06/13 08:59:03;;;;;;;9.20;3.33;;;;;;;;;;4939095;29;20031;-77
2023/06/13 09:01:29;;;;;;;8.73;3.83;;;;;;;;;;4932832;29;20027;-79
2023/06/13 09:03:56;;;;;;;6.82;3.50;;;;;;;;;;4944385;29;20031;-78
2023/06/13 09:06:23;;;;;;;4.93;3.50;;;;;;;;;;4925823;29;20090;-79
2023/06/13 09:09:01;;;;;;;10.77;3.92;;;;;;;;;;4934650;29;20159;-79
2023/06/13 09:11:28;;;;;;;8.52;3.80;;;;;;;;;;4924614;29;20062;-78
2023/06/13 09:13:55;;;;;;;7.93;3.20;;;;;;;;;;4945611;29;20028;-78
2023/06/13 09:16:21;;;;;;;7.57;3.25;;;;;;;;;;4937863;29;20148;-79
2023/06/13 09:18:49;;;;;;;6.32;2.85;;;;;;;;;;4918311;29;20484;-78
2023/06/13 09:21:16;;;;;;;5.95;2.90;;;;;;;;;;4920852;29;20034;-78
2023/06/13 09:23:42;;;;;;;7.80;3.28;;;;;;;;;;4942566;29;20106;-79
2023/06/13 09:26:08;;;;;;;10.55;3.75;;;;;;;;;;4954295;28;20170;-79
2023/06/13 09:28:38;;;;;;;5.80;3.40;;;;;;;;;;4923553;29;20039;-79
2023/06/13 09:31:03;;;;;;;5.80;3.60;;;;;;;;;;4950914;29;20057;-78
2023/06/13 09:33:29;;;;;;;6.15;3.88;;;;;;;;;;4940689;29;20489;-78
2023/06/13 09:35:54;;;;;;;5.57;3.38;;;;;;;;;;4928307;29;20042;-78
2023/06/13 09:38:23;;;;;;;7.53;3.30;;;;;;;;;;4948328;29;20035;-77
2023/06/13 09:40:49;;;;;;;6.35;2.78;;;;;;;;;;4938433;29;20031;-79
2023/06/13 09:43:15;;;;;;;9.55;3.47;;;;;;;;;;4950646;29;20107;-79
2023/06/13 09:45:43;;;;;;;5.93;3.10;;;;;;;;;;4936704;28;20107;-79
2023/06/13 09:48:08;;;;;;;8.38;3.30;;;;;;;;;;4925659;29;20409;-78
2023/06/13 09:50:36;;;;;;;8.30;3.20;;;;;;;;;;4940954;29;20028;-78
2023/06/13 09:53:02;;;;;;;6.68;2.90;;;;;;;;;;4937495;29;20090;-78
2023/06/13 09:55:31;;;;;;;7.38;2.92;;;;;;;;;;4949723;29;20055;-79
2023/06/13 09:57:56;;;;;;;5.78;3.15;;;;;;;;;;4947341;29;20051;-79
2023/06/13 10:00:22;;;;;;;5.85;3.13;;;;;;;;;;4946196;29;20058;-79
2023/06/13 10:02:48;;;;;;;10.60;3.42;;;;;;;;;;4938189;29;20031;-80
2023/06/13 10:05:14;;;;;;;4.93;3.05;;;;;;;;;;4939938;29;20192;-79
2023/06/13 10:07:39;;;;;;;9.90;3.05;;;;;;;;;;4932124;29;20028;-78
2023/06/13 10:10:06;;;;;;;9.15;3.28;;;;;;;;;;4946572;29;20046;-79
2023/06/13 10:12:32;;;;;;;6.60;3.17;;;;;;;;;;4923950;29;20497;-79
2023/06/13 10:15:00;;;;;;;7.47;2.95;;;;;;;;;;4940777;29;20545;-79
2023/06/13 10:17:28;;;;;;;7.53;3.50;;;;;;;;;;4938527;28;20528;-78
2023/06/13 10:19:54;;;;;;;;;;;;;;;;;;4908040;29;20035;-79
2023/06/13 10:22:20;;;;;;;6.43;3.20;;;;;;;;;;4919004;29;19930;-79
2023/06/13 10:24:48;;;;;;;11.98;3.70;;;;;;;;;;4918706;29;20047;-79
2023/06/13 10:27:14;;;;;;;5.10;3.33;;;;;;;;;;4905682;29;20496;-77
2023/06/13 10:29:39;;;;;;;5.57;3.42;;;;;;;;;;4946908;28;20302;-78
2023/06/13 10:32:12;;;;;;;4.60;2.90;;;;;;;;;;4940048;29;20084;-78
2023/06/13 10:34:37;;;;;;;8.30;3.22;;;;;;;;;;4917209;29;20039;-77
2023/06/13 10:37:08;;;;;;;6.88;2.90;;;;;;;;;;4949765;28;20031;-80
2023/06/13 10:39:34;;;;;;;7.50;3.20;;;;;;;;;;4940696;29;20046;-78
2023/06/13 10:42:20;;;;;;;5.80;3.40;;;;;;;;;;4932391;29;20335;-79
2023/06/13 10:44:56;;;;;;;5.43;3.28;;;;;;;;;;4939091;29;20052;-78
2023/06/13 10:47:22;;;;;;;9.35;3.25;;;;;;;;;;4907417;29;20374;-79
2023/06/13 10:49:48;;;;;;;7.40;2.70;;;;;;;;;;4928690;29;20060;-79
2023/06/13 10:52:15;;;;;;;10.60;6.47;;;;;;;;;;4928598;29;20127;-79
2023/06/13 10:54:40;;;;;;;9.30;4.50;;;;;;;;;;4939366;29;20024;-79
2023/06/13 10:57:07;;;;;;;6.35;3.53;;;;;;;;;;4948556;28;20038;-78
2023/06/13 10:59:40;;;;;;;7.32;3.50;;;;;;;;;;4939966;29;20035;-79
2023/06/13 11:02:13;;;;;;;6.65;3.42;;;;;;;;;;4925817;29;20039;-79
2023/06/13 11:04:38;;;;;;;5.97;3.38;;;;;;;;;;4901314;29;20203;-79
2023/06/13 11:07:19;;;;;;;7.35;3.42;;;;;;;;;;4932394;29;20497;-77
2023/06/13 11:10:00;;;;;;;6.78;3.60;;;;;;;;;;4924351;29;20082;-79
2023/06/13 11:12:25;;;;;;;6.82;2.92;;;;;;;;;;4923255;29;20024;-78
2023/06/13 11:14:51;;;;;;;4.90;3.10;;;;;;;;;;4940983;29;20027;-79
2023/06/13 11:17:16;;;;;;;5.85;3.33;;;;;;;;;;4937557;29;20027;-77
2023/06/13 11:19:42;;;;;;;7.82;3.17;;;;;;;;;;4945844;29;20508;-80
2023/06/13 11:22:11;;;;;;;6.22;3.25;;;;;;;;;;4944383;29;20027;-78
2023/06/13 11:24:37;;;;;;;8.77;3.15;;;;;;;;;;4938575;29;20040;-79
2023/06/13 11:27:07;;;;;;;6.60;3.05;;;;;;;;;;4932935;29;20507;-79
2023/06/13 11:29:33;;;;;;;6.05;3.35;;;;;;;;;;4939568;29;20532;-76
2023/06/13 11:32:00;;;;;;;10.20;3.70;;;;;;;;;;4926132;29;20043;-78
2023/06/13 11:34:28;;;;;;;5.35;3.08;;;;;;;;;;4929814;29;20031;-80
2023/06/13 11:36:53;;;;;;;;;;;;;;;;;;4937131;29;20073;-78
2023/06/13 11:39:29;;;;;;;4.32;2.75;;;;;;;;;;4931486;29;20351;-79
2023/06/13 11:41:55;;;;;;;5.72;3.42;;;;;;;;;;4927625;29;20046;-79
2023/06/13 11:44:21;;;;;;;6.75;3.20;;;;;;;;;;4926101;29;20111;-80
2023/06/13 11:46:46;;;;;;;6.72;3.20;;;;;;;;;;4903974;29;20040;-77
2023/06/13 11:49:15;;;;;;;6.50;3.17;;;;;;;;;;4952794;29;20026;-79
2023/06/13 11:51:41;;;;;;;11.55;3.33;;;;;;;;;;4943820;29;20473;-78
2023/06/13 11:54:07;;;;;;;5.15;2.78;;;;;;;;;;4945655;29;20123;-79
2023/06/13 11:56:36;;;;;;;5.82;3.08;;;;;;;;;;4930134;29;20222;-77
2023/06/13 11:59:13;;;;;;;8.07;3.30;;;;;;;;;;4952795;29;20031;-79
2023/06/13 12:01:39;;;;;;;6.43;3.00;;;;;;;;;;4943709;29;20095;-78
2023/06/13 12:04:04;;;;;;;4.95;2.67;;;;;;;;;;4950366;29;20023;-79
2023/06/13 12:06:30;;;;;;;7.95;3.10;;;;;;;;;;4942494;29;20110;-79
2023/06/13 12:08:55;;;;;;;6.05;2.47;;;;;;;;;;4952655;29;20567;-80
2023/06/13 12:11:21;;;;;;;4.70;2.67;;;;;;;;;;4941179;29;20039;-79
2023/06/13 12:13:57;;;;;;;6.60;2.95;;;;;;;;;;4930938;29;20032;-79
2023/06/13 12:16:23;;;;;;;5.35;2.80;;;;;;;;;;4949165;28;20039;-78
2023/06/13 12:18:53;;;;;;;4.75;2.70;;;;;;;;;;4939985;29;20488;-79
2023/06/13 12:21:21;;;;;;;5.13;2.70;;;;;;;;;;4951766;29;20020;-79
2023/06/13 12:23:46;;;;;;;6.40;2.92;;;;;;;;;;4944286;29;20110;-78
2023/06/13 12:26:12;;;;;;;8.43;2.72;;;;;;;;;;4927254;29;20441;-78
2023/06/13 12:28:39;;;;;;;4.57;2.50;;;;;;;;;;4919629;29;20107;-78
2023/06/13 12:31:07;;;;;;;8.98;2.80;;;;;;;;;;4926454;29;20032;-79
2023/06/13 12:33:37;;;;;;;8.77;2.90;;;;;;;;;;4942403;29;20429;-77
2023/06/13 12:36:03;;;;;;;6.78;2.50;;;;;;;;;;4945591;29;20114;-79
2023/06/13 12:38:32;;;;;;;4.57;2.53;;;;;;;;;;4949502;29;20493;-78
2023/06/13 12:40:58;;;;;;;10.20;3.08;;;;;;;;;;4939876;29;20127;-78
2023/06/13 12:43:24;;;;;;;5.13;2.72;;;;;;;;;;4950588;29;20414;-79
2023/06/13 12:45:50;;;;;;;7.00;2.83;;;;;;;;;;4927581;29;20535;-79
2023/06/13 12:48:16;;;;;;;4.90;2.70;;;;;;;;;;4939793;29;20055;-78
2023/06/13 12:50:42;;;;;;;4.75;2.58;;;;;;;;;;4949926;29;20027;-80
2023/06/13 12:53:08;;;;;;;5.07;2.30;;;;;;;;;;4923826;29;20848;-80
2023/06/13 12:55:33;;;;;;;6.22;2.75;;;;;;;;;;4951902;29;20028;-78
2023/06/13 12:58:22;;;;;;;6.43;2.13;;;;;;;;;;4949969;29;20518;-81
2023/06/13 13:00:50;;;;;;;4.28;2.67;;;;;;;;;;4925021;29;20024;-79
2023/06/13 13:03:15;;;;;;;;;;;;;;;;;;4923817;29;20132;-79
2023/06/13 13:05:41;;;;;;;5.53;2.20;;;;;;;;;;4947817;28;20388;-80
2023/06/13 13:08:08;;;;;;;5.13;2.72;;;;;;;;;;4930775;29;20032;-77
2023/06/13 13:10:34;;;;;;;5.22;2.30;;;;;;;;;;4949737;29;20023;-79
2023/06/13 13:12:59;;;;;;;5.07;2.47;;;;;;;;;;4919831;29;20449;-80
2023/06/13 13:15:25;;;;;;;7.43;2.33;;;;;;;;;;4940088;28;20030;-77
2023/06/13 13:17:50;;;;;;;5.97;2.80;;;;;;;;;;4946163;29;20479;-79
2023/06/13 13:20:16;;;;;;;7.05;2.58;;;;;;;;;;4929788;29;20027;-78
2023/06/13 13:22:41;;;;;;;7.88;2.60;;;;;;;;;;4939435;29;20409;-78
2023/06/13 13:25:07;;;;;;;12.07;2.92;;;;;;;;;;4921083;29;20122;-80
2023/06/13 13:27:33;;;;;;;3.90;2.17;;;;;;;;;;4921758;29;20536;-78
2023/06/13 13:29:58;;;;;;;6.38;2.42;;;;;;;;;;4944964;29;20046;-79
2023/06/13 13:32:23;;;;;;;4.97;2.55;;;;;;;;;;4947383;29;20033;-78
2023/06/13 13:34:49;;;;;;;6.53;2.40;;;;;;;;;;4938026;29;20575;-80
2023/06/13 13:37:14;;;;;;;7.13;2.88;;;;;;;;;;4933253;29;20122;-77
2023/06/13 13:39:40;;;;;;;6.53;2.78;;;;;;;;;;4934983;29;20461;-78
2023/06/13 13:42:06;;;;;;;7.75;2.58;;;;;;;;;;4922158;29;20422;-79
2023/06/13 13:44:31;;;;;;;4.78;2.50;;;;;;;;;;4925100;29;20048;-79
2023/06/13 13:46:57;;;;;;;8.05;2.65;;;;;;;;;;4931588;29;20118;-78
2023/06/13 13:49:22;;;;;;;5.07;3.13;;;;;;;;;;4922393;29;20101;-79
2023/06/13 13:51:48;;;;;;;9.43;3.40;;;;;;;;;;4931001;29;20397;-79
2023/06/13 13:54:14;;;;;;;5.00;2.97;;;;;;;;;;4929988;29;20485;-79
2023/06/13 13:56:40;;;;;;;5.65;2.80;;;;;;;;;;4939467;29;20024;-78
2023/06/13 13:59:05;;;;;;;15.73;3.10;;;;;;;;;;4933637;29;20489;-80
2023/06/13 14:01:31;;;;;;;5.60;2.58;;;;;;;;;;4934649;29;20030;-77
2023/06/13 14:03:56;;;;;;;7.03;2.55;;;;;;;;;;4943242;29;20484;-78
2023/06/13 14:06:22;;;;;;;4.65;2.60;;;;;;;;;;4924014;29;20036;-79
2023/06/13 14:08:48;;;;;;;6.15;2.85;;;;;;;;;;4933612;29;20027;-79
2023/06/13 14:11:13;;;;;;;6.80;3.65;;;;;;;;;;4905319;29;20027;-79
2023/06/13 14:13:40;;;;;;;5.00;2.70;;;;;;;;;;4930370;29;20032;-79
2023/06/13 14:16:05;;;;;;;6.00;2.65;;;;;;;;;;4927786;29;20049;-78
2023/06/13 14:18:31;;;;;;;12.48;2.40;;;;;;;;;;4922677;29;20564;-79
2023/06/13 14:20:57;;;;;;;7.72;3.03;;;;;;;;;;4950176;29;20094;-78
2023/06/13 14:23:22;;;;;;;5.28;2.65;;;;;;;;;;4939148;29;20107;-80
2023/06/13 14:25:48;;;;;;;6.57;2.63;;;;;;;;;;4912672;29;20126;-78
2023/06/13 14:28:13;;;;;;;5.85;2.00;;;;;;;;;;4913071;29;20035;-78
2023/06/13 14:30:39;;;;;;;4.50;2.80;;;;;;;;;;4938927;29;20034;-76
2023/06/13 14:33:05;;;;;;;5.20;2.67;;;;;;;;;;4932607;29;20028;-78
2023/06/13 14:35:31;;;;;;;4.88;2.60;;;;;;;;;;4922951;28;20053;-79
2023/06/13 14:37:57;;;;;;;5.03;2.70;;;;;;;;;;4943364;29;20489;-76